Time;durP1;ratioP1;P1;durP2;ratioP2;P2;SDS_P1;SDS_P2;PMS_P1;PMS_P2;Temp;Humidity;BMP_temperature;BMP_pressure;BME280_temperature;BME280_humidity;BME280_pressure;Samples;Min_cycle;Max_cycle;Signal;HPM_P1;HPM_P2
2023/05/08 00:01:49;;;;;;;;;;;7.90;63.50;;;;;;4078280;29;19935;-86
2023/05/08 00:03:53;;;;;;;;;;;7.90;63.40;;;;;;4092251;28;20134;-86
2023/05/08 00:05:54;;;;;;;;;;;7.90;63.30;;;;;;4106684;28;19926;-87
2023/05/08 00:08:01;;;;;;;;;;;7.90;63.40;;;;;;4088301;28;20412;-87
2023/05/08 00:10:04;;;;;;;;;;;7.80;63.30;;;;;;4091573;28;20001;-87
2023/05/08 00:12:08;;;;;;;;;;;7.70;63.30;;;;;;4073291;29;19934;-86
2023/05/08 00:14:11;;;;;;;;;;;7.70;63.30;;;;;;4085941;28;19931;-87
2023/05/08 00:16:14;;;;;;;;;;;7.70;63.30;;;;;;4108652;28;19970;-87
2023/05/08 00:18:38;;;;;;;;;;;7.70;63.40;;;;;;4072197;29;20397;-87
2023/05/08 00:20:46;;;;;;;;;;;7.70;63.50;;;;;;4107383;28;20311;-87
2023/05/08 00:22:58;;;;;;;;;;;7.70;63.70;;;;;;4082929;28;20308;-87
2023/05/08 00:25:05;;;;;;;;;;;7.70;63.60;;;;;;4106026;28;19981;-87
2023/05/08 00:27:08;;;;;;;;;;;7.70;63.70;;;;;;4107122;28;19918;-86
2023/05/08 00:29:12;;;;;;;;;;;7.70;63.80;;;;;;4079852;28;19929;-86
2023/05/08 00:31:13;;;;;;;;;;;7.70;63.80;;;;;;4090003;28;19910;-87
2023/05/08 00:33:20;;;;;;;;;;;7.70;63.90;;;;;;4091207;28;20053;-86
2023/05/08 00:35:41;;;;;;;;;;;7.70;63.90;;;;;;4108838;28;20033;-86
2023/05/08 00:37:42;;;;;;;;;;;7.60;63.90;;;;;;4106671;28;19968;-87
2023/05/08 00:39:43;;;;;;;;;;;7.70;64.00;;;;;;4091410;28;19986;-86
2023/05/08 00:41:44;;;;;;;;;;;7.60;64.10;;;;;;4108123;28;19922;-88
2023/05/08 00:44:08;;;;;;;;;;;7.60;64.10;;;;;;4106661;28;19949;-87
2023/05/08 00:46:29;;;;;;;;;;;7.60;64.10;;;;;;4101964;28;19965;-87
2023/05/08 00:48:31;;;;;;;;;;;7.50;64.00;;;;;;4086360;28;19915;-86
2023/05/08 00:50:35;;;;;;;;;;;7.50;64.00;;;;;;4109916;28;19918;-87
2023/05/08 00:52:36;;;;;;;;;;;7.60;64.10;;;;;;4102830;28;19922;-86
2023/05/08 00:54:37;;;;;;;;;;;7.60;64.10;;;;;;4095959;28;19942;-86
2023/05/08 00:56:37;;;;;;;;;;;7.60;64.10;;;;;;4092376;28;20676;-86
2023/05/08 00:58:39;;;;;;;;;;;7.50;64.10;;;;;;4089645;28;19922;-87
2023/05/08 01:00:41;;;;;;;;;;;7.50;64.10;;;;;;4105203;28;19970;-86
2023/05/08 01:02:42;;;;;;;;;;;7.40;64.80;;;;;;4088451;28;19918;-87
2023/05/08 01:07:13;;;;;;;;;;;7.40;64.20;;;;;;4040558;29;20006;-87
2023/05/08 01:09:14;;;;;;;;;;;7.30;64.20;;;;;;4063834;29;19926;-88
2023/05/08 01:11:30;;;;;;;;;;;7.40;65.10;;;;;;4046576;29;19923;-87
2023/05/08 01:13:31;;;;;;;;;;;7.30;64.20;;;;;;4063546;29;19970;-87
2023/05/08 01:15:35;;;;;;;;;;;7.30;64.30;;;;;;4057308;29;19915;-86
2023/05/08 01:17:39;;;;;;;;;;;7.30;64.30;;;;;;4061081;29;20137;-87
2023/05/08 01:20:10;;;;;;;;;;;7.30;64.40;;;;;;4059753;29;19975;-87
2023/05/08 01:22:26;;;;;;;;;;;7.30;64.50;;;;;;4039930;29;19919;-87
2023/05/08 01:24:50;;;;;;;;;;;7.20;64.50;;;;;;4056715;29;20276;-86
2023/05/08 01:27:35;;;;;;;;;;;7.20;64.50;;;;;;4059501;29;19919;-87
2023/05/08 01:30:13;;;;;;;;;;;7.20;64.60;;;;;;4058964;29;19915;-86
2023/05/08 01:32:45;;;;;;;;;;;7.20;64.60;;;;;;4059561;29;20597;-86
2023/05/08 01:35:06;;;;;;;;;;;7.20;64.80;;;;;;4044922;29;20107;-86
2023/05/08 01:37:34;;;;;;;;;;;7.10;64.80;;;;;;4064015;29;19938;-86
2023/05/08 01:40:06;;;;;;;;;;;7.10;64.80;;;;;;4056018;29;19919;-87
2023/05/08 01:42:40;;;;;;;;;;;7.00;64.80;;;;;;4057723;29;19961;-87
2023/05/08 01:45:04;;;;;;;;;;;7.10;64.80;;;;;;4095755;28;19982;-87
2023/05/08 01:47:26;;;;;;;;;;;7.10;65.00;;;;;;4106566;28;19922;-87
2023/05/08 01:50:02;;;;;;;;;;;7.10;65.10;;;;;;4106782;28;20411;-86
2023/05/08 01:52:28;;;;;;;;;;;7.00;65.10;;;;;;4095128;28;19925;-86
2023/05/08 01:54:53;;;;;;;;;;;7.00;65.10;;;;;;4102869;28;19925;-87
2023/05/08 01:57:14;;;;;;;;;;;7.00;65.20;;;;;;4092425;28;20590;-87
2023/05/08 01:59:35;;;;;;;;;;;6.90;65.40;;;;;;4112155;28;19926;-86
2023/05/08 02:01:57;;;;;;;;;;;6.90;65.40;;;;;;4108299;28;19969;-86
2023/05/08 02:04:18;;;;;;;;;;;6.90;65.30;;;;;;4109016;28;19981;-86
2023/05/08 02:06:20;;;;;;;;;;;7.00;65.50;;;;;;4106958;28;19965;-86
2023/05/08 02:08:21;;;;;;;;;;;6.90;65.60;;;;;;4092007;28;19922;-87
2023/05/08 02:10:23;;;;;;;;;;;7.00;65.60;;;;;;4106347;28;19922;-87
2023/05/08 02:12:27;;;;;;;;;;;6.90;65.60;;;;;;4090894;28;19944;-86
2023/05/08 02:14:28;;;;;;;;;;;6.80;65.60;;;;;;4105447;28;19973;-86
2023/05/08 02:16:29;;;;;;;;;;;6.90;66.00;;;;;;4091061;28;19964;-86
2023/05/08 02:18:30;;;;;;;;;;;6.90;66.10;;;;;;4108372;28;19922;-86
2023/05/08 02:20:32;;;;;;;;;;;6.80;66.00;;;;;;4104654;28;19922;-87
2023/05/08 02:22:35;;;;;;;;;;;6.90;66.10;;;;;;4090218;28;19914;-87
2023/05/08 02:24:37;;;;;;;;;;;6.80;66.00;;;;;;4105056;28;20004;-86
2023/05/08 02:26:38;;;;;;;;;;;6.90;66.10;;;;;;4108821;28;20347;-87
2023/05/08 02:28:40;;;;;;;;;;;6.80;66.00;;;;;;4089918;28;20650;-86
2023/05/08 02:30:43;;;;;;;;;;;6.80;66.00;;;;;;4125573;28;20375;-86
2023/05/08 02:32:48;;;;;;;;;;;6.80;66.00;;;;;;4091714;28;19969;-86
2023/05/08 02:34:49;;;;;;;;;;;6.80;66.00;;;;;;4090310;28;20292;-86
2023/05/08 02:36:50;;;;;;;;;;;6.90;66.70;;;;;;4107465;28;19918;-86
2023/05/08 02:38:57;;;;;;;;;;;6.70;66.30;;;;;;4089173;28;20459;-86
2023/05/08 02:41:00;;;;;;;;;;;6.70;66.40;;;;;;4103484;28;19922;-86
2023/05/08 02:43:01;;;;;;;;;;;6.80;66.20;;;;;;4107878;28;20396;-87
2023/05/08 02:45:05;;;;;;;;;;;6.70;66.20;;;;;;4107627;28;19976;-86
2023/05/08 02:47:20;;;;;;;;;;;6.70;66.20;;;;;;4106797;28;19929;-87
2023/05/08 02:49:21;;;;;;;;;;;6.70;66.20;;;;;;4105606;28;19973;-86
2023/05/08 02:51:28;;;;;;;;;;;6.80;67.10;;;;;;4091191;28;19914;-86
2023/05/08 02:53:44;;;;;;;;;;;6.70;66.30;;;;;;4110809;28;19914;-86
2023/05/08 02:55:49;;;;;;;;;;;6.70;66.30;;;;;;4110138;28;20002;-86
2023/05/08 02:58:03;;;;;;;;;;;6.70;66.40;;;;;;4089174;28;19914;-86
2023/05/08 03:00:38;;;;;;;;;;;6.60;66.60;;;;;;4088924;28;20395;-87
2023/05/08 03:02:40;;;;;;;;;;;6.70;67.40;;;;;;4113278;28;20541;-86
2023/05/08 03:04:54;;;;;;;;;;;6.60;67.70;;;;;;4093166;28;19923;-86
2023/05/08 03:06:58;;;;;;;;;;;6.60;68.40;;;;;;4076083;29;20987;-87
2023/05/08 03:09:04;;;;;;;;;;;6.70;68.20;;;;;;4091223;28;19966;-86
2023/05/08 03:11:07;;;;;;;;;;;6.60;67.80;;;;;;4092163;28;19919;-86
2023/05/08 03:13:09;;;;;;;;;;;6.50;67.60;;;;;;4092604;28;20017;-86
2023/05/08 03:15:32;;;;;;;;;;;6.50;67.80;;;;;;4109345;28;20052;-87
2023/05/08 03:17:34;;;;;;;;;;;6.50;69.30;;;;;;4093837;28;20293;-87
2023/05/08 03:19:43;;;;;;;;;;;6.50;68.40;;;;;;4093044;28;19933;-86
2023/05/08 03:21:44;;;;;;;;;;;6.50;67.90;;;;;;4108707;28;19961;-87
2023/05/08 03:23:48;;;;;;;;;;;6.40;67.50;;;;;;4111721;28;19914;-86
2023/05/08 03:25:50;;;;;;;;;;;6.50;67.50;;;;;;4108352;28;20005;-87
2023/05/08 03:27:50;;;;;;;;;;;6.50;68.00;;;;;;4090618;28;20091;-87
2023/05/08 03:29:52;;;;;;;;;;;6.50;67.80;;;;;;4089929;28;19964;-86
2023/05/08 03:31:53;;;;;;;;;;;6.50;67.60;;;;;;4111170;28;20548;-86
2023/05/08 03:33:54;;;;;;;;;;;6.40;67.40;;;;;;4078579;29;19946;-86
2023/05/08 03:35:58;;;;;;;;;;;6.40;67.30;;;;;;4102663;28;20020;-86
2023/05/08 03:37:59;;;;;;;;;;;6.50;68.00;;;;;;4093012;28;20409;-86
2023/05/08 03:39:59;;;;;;;;;;;6.50;68.00;;;;;;4109424;28;20027;-87
2023/05/08 03:42:00;;;;;;;;;;;6.40;68.00;;;;;;4109945;28;19977;-86
2023/05/08 03:44:02;;;;;;;;;;;6.40;67.80;;;;;;4091206;28;20009;-87
2023/05/08 03:46:06;;;;;;;;;;;6.50;67.70;;;;;;4095291;28;19922;-86
2023/05/08 03:48:07;;;;;;;;;;;6.40;67.50;;;;;;4105149;28;19953;-86
2023/05/08 03:50:08;;;;;;;;;;;6.40;67.60;;;;;;4087758;28;19923;-86
2023/05/08 03:52:11;;;;;;;;;;;6.40;67.90;;;;;;4090996;28;20309;-86
2023/05/08 03:54:12;;;;;;;;;;;6.40;67.60;;;;;;4109243;28;19918;-85
2023/05/08 03:56:13;;;;;;;;;;;6.40;67.60;;;;;;4104410;28;19924;-86
2023/05/08 03:58:23;;;;;;;;;;;6.40;67.50;;;;;;4107155;28;19925;-86
2023/05/08 04:00:44;;;;;;;;;;;6.30;67.30;;;;;;4107731;28;20098;-86
2023/05/08 04:03:07;;;;;;;;;;;6.40;67.40;;;;;;4066450;28;19937;-86
2023/05/08 04:05:18;;;;;;;;;;;6.30;67.50;;;;;;4106042;28;19922;-86
2023/05/08 04:07:19;;;;;;;;;;;6.30;67.60;;;;;;4105720;28;20580;-86
2023/05/08 04:09:26;;;;;;;;;;;6.40;67.90;;;;;;4091439;28;19918;-86
2023/05/08 04:11:46;;;;;;;;;;;6.30;67.80;;;;;;4104704;28;20526;-86
2023/05/08 04:14:09;;;;;;;;;;;6.30;67.90;;;;;;4103568;28;19948;-87
2023/05/08 04:16:32;;;;;;;;;;;6.40;68.10;;;;;;4089478;28;20464;-86
2023/05/08 04:19:01;;;;;;;;;;;6.30;68.70;;;;;;4105135;28;20380;-87
2023/05/08 04:21:23;;;;;;;;;;;6.40;68.40;;;;;;4091292;28;19915;-86
2023/05/08 04:23:46;;;;;;;;;;;6.30;68.20;;;;;;4106275;28;20468;-87
2023/05/08 04:26:07;;;;;;;;;;;6.50;68.60;;;;;;4101000;28;20377;-86
2023/05/08 04:28:28;;;;;;;;;;;6.50;69.70;;;;;;4090262;28;19925;-87
2023/05/08 04:30:50;;;;;;;;;;;6.60;70.40;;;;;;4105050;28;19976;-85
2023/05/08 04:32:51;;;;;;;;;;;6.70;69.90;;;;;;4102611;28;19965;-86
2023/05/08 04:34:51;;;;;;;;;;;6.70;69.80;;;;;;4102558;28;19997;-87
2023/05/08 04:36:52;;;;;;;;;;;6.80;69.90;;;;;;4088458;28;20021;-88
2023/05/08 04:38:53;;;;;;;;;;;6.90;70.10;;;;;;4040229;28;1764365;-86
2023/05/08 04:40:54;;;;;;;;;;;6.90;70.00;;;;;;4101369;28;19919;-87
2023/05/08 04:42:54;;;;;;;;;;;6.80;70.00;;;;;;4081143;28;20380;-87
2023/05/08 04:44:55;;;;;;;;;;;6.90;70.00;;;;;;4085190;28;19927;-86
2023/05/08 04:46:56;;;;;;;;;;;7.10;70.30;;;;;;4106808;28;20038;-86
2023/05/08 04:48:57;;;;;;;;;;;7.10;70.50;;;;;;4105427;28;19966;-87
2023/05/08 04:50:59;;;;;;;;;;;7.20;70.60;;;;;;4105106;28;19918;-86
2023/05/08 04:52:59;;;;;;;;;;;7.30;71.50;;;;;;4102486;28;20641;-85
2023/05/08 04:55:00;;;;;;;;;;;7.40;71.80;;;;;;4089006;28;20235;-86
2023/05/08 04:57:01;;;;;;;;;;;7.50;71.40;;;;;;4106965;28;19914;-86
2023/05/08 04:59:01;;;;;;;;;;;7.50;71.30;;;;;;4111827;28;19977;-87
2023/05/08 05:01:02;;;;;;;;;;;7.50;71.80;;;;;;4091023;28;19954;-87
2023/05/08 05:03:04;;;;;;;;;;;7.70;72.10;;;;;;4105167;28;19925;-85
2023/05/08 05:05:08;;;;;;;;;;;7.70;72.10;;;;;;4090146;28;19938;-86
2023/05/08 05:07:28;;;;;;;;;;;7.80;73.20;;;;;;4100351;28;20396;-87
2023/05/08 05:09:49;;;;;;;;;;;8.00;73.60;;;;;;4102379;28;19922;-87
2023/05/08 05:12:09;;;;;;;;;;;8.10;73.20;;;;;;4108356;28;19918;-88
2023/05/08 05:14:30;;;;;;;;;;;8.20;72.70;;;;;;4103072;28;19996;-87
2023/05/08 05:16:51;;;;;;;;;;;8.10;72.90;;;;;;4094566;28;19918;-87
2023/05/08 05:19:12;;;;;;;;;;;8.30;72.60;;;;;;4107796;28;19984;-88
2023/05/08 05:21:32;;;;;;;;;;;8.40;72.30;;;;;;4107610;28;20380;-87
2023/05/08 05:23:53;;;;;;;;;;;8.40;72.50;;;;;;4106698;28;19968;-87
2023/05/08 05:26:14;;;;;;;;;;;8.60;72.60;;;;;;4106794;28;19937;-86
2023/05/08 05:28:34;;;;;;;;;;;8.70;72.50;;;;;;4096429;28;20380;-87
2023/05/08 05:30:55;;;;;;;;;;;8.80;72.10;;;;;;4106309;28;20361;-88
2023/05/08 05:33:15;;;;;;;;;;;8.90;71.80;;;;;;4090888;28;20423;-86
2023/05/08 05:35:36;;;;;;;;;;;9.00;71.90;;;;;;4107125;28;20273;-87
2023/05/08 05:37:57;;;;;;;;;;;9.10;72.30;;;;;;4106174;28;20369;-86
2023/05/08 05:39:57;;;;;;;;;;;9.10;72.00;;;;;;4092922;28;19930;-85
2023/05/08 05:41:58;;;;;;;;;;;9.30;71.80;;;;;;4088367;28;19945;-87
2023/05/08 05:43:59;;;;;;;;;;;9.40;72.00;;;;;;4092088;28;19919;-86
2023/05/08 05:46:06;;;;;;;;;;;9.40;71.70;;;;;;4091625;28;19973;-88
2023/05/08 05:48:07;;;;;;;;;;;9.50;71.70;;;;;;4110285;28;20449;-87
2023/05/08 05:50:10;;;;;;;;;;;9.60;71.60;;;;;;4107900;28;19966;-87
2023/05/08 05:52:12;;;;;;;;;;;9.60;71.40;;;;;;4107659;28;19914;-87
2023/05/08 05:54:13;;;;;;;;;;;9.70;71.00;;;;;;4087945;28;19941;-87
2023/05/08 05:56:14;;;;;;;;;;;9.80;71.00;;;;;;4105131;28;19964;-87
2023/05/08 05:58:16;;;;;;;;;;;9.90;70.70;;;;;;4088326;28;19926;-87
2023/05/08 06:00:17;;;;;;;;;;;9.90;70.20;;;;;;4107418;28;20017;-87
2023/05/08 06:02:23;;;;;;;;;;;10.00;69.70;;;;;;4087554;28;19918;-87
2023/05/08 06:04:43;;;;;;;;;;;10.10;69.70;;;;;;4089621;28;20447;-85
2023/05/08 06:07:04;;;;;;;;;;;10.20;69.10;;;;;;4090028;28;20478;-86
2023/05/08 06:09:24;;;;;;;;;;;10.20;68.60;;;;;;4105508;28;20419;-85
2023/05/08 06:11:45;;;;;;;;;;;10.30;68.30;;;;;;4103941;28;19969;-86
2023/05/08 06:14:05;;;;;;;;;;;10.30;67.80;;;;;;4106059;28;20372;-86
2023/05/08 06:16:26;;;;;;;;;;;10.40;67.20;;;;;;4109344;28;20435;-84
2023/05/08 06:18:27;;;;;;;;;;;10.50;66.90;;;;;;4106383;28;19914;-86
2023/05/08 06:20:47;;;;;;;;;;;10.60;67.00;;;;;;4110006;28;20376;-87
2023/05/08 06:23:08;;;;;;;;;;;10.60;67.10;;;;;;4107645;28;19945;-85
2023/05/08 06:25:09;;;;;;;;;;;10.60;66.90;;;;;;4086761;28;20005;-87
2023/05/08 06:27:30;;;;;;;;;;;10.70;66.40;;;;;;4105641;28;20467;-86
2023/05/08 06:29:52;;;;;;;;;;;10.60;65.50;;;;;;4102304;28;19914;-86
2023/05/08 06:32:12;;;;;;;;;;;10.80;65.80;;;;;;4106080;28;20674;-85
2023/05/08 06:34:33;;;;;;;;;;;11.00;65.90;;;;;;4109066;28;20423;-86
2023/05/08 06:36:53;;;;;;;;;;;10.90;65.30;;;;;;4108642;28;20619;-86
2023/05/08 06:39:21;;;;;;;;;;;11.00;65.60;;;;;;4105254;28;19973;-86
2023/05/08 06:41:40;;;;;;;;;;;11.10;65.80;;;;;;4106629;28;20454;-87
2023/05/08 06:44:01;;;;;;;;;;;11.20;65.50;;;;;;4108002;28;20398;-85
2023/05/08 06:46:22;;;;;;;;;;;11.20;64.60;;;;;;4105993;28;20384;-86
2023/05/08 06:48:42;;;;;;;;;;;11.30;63.50;;;;;;4090596;28;20487;-85
2023/05/08 06:51:03;;;;;;;;;;;11.30;63.50;;;;;;4092014;28;20428;-86
2023/05/08 06:53:24;;;;;;;;;;;11.40;62.90;;;;;;4104353;28;20304;-84
2023/05/08 06:55:44;;;;;;;;;;;11.50;62.60;;;;;;4107999;28;20368;-87
2023/05/08 06:58:05;;;;;;;;;;;11.50;61.90;;;;;;4104940;28;20645;-86
2023/05/08 07:00:21;;;;;;;;;;;11.50;61.40;;;;;;4107741;28;19941;-86
2023/05/08 07:02:21;;;;;;;;;;;11.50;61.50;;;;;;4105254;28;20633;-85
2023/05/08 07:04:22;;;;;;;;;;;11.60;61.80;;;;;;4107226;28;19929;-87
2023/05/08 07:06:22;;;;;;;;;;;11.60;61.30;;;;;;4103914;28;19918;-85
2023/05/08 07:08:23;;;;;;;;;;;11.70;61.90;;;;;;4089481;28;19966;-85
2023/05/08 07:10:23;;;;;;;;;;;11.70;62.10;;;;;;4091007;28;19990;-87
2023/05/08 07:12:24;;;;;;;;;;;11.80;62.20;;;;;;4071998;29;19931;-87
2023/05/08 07:14:26;;;;;;;;;;;11.70;62.20;;;;;;4109193;28;19938;-86
2023/05/08 07:16:27;;;;;;;;;;;11.90;62.00;;;;;;4088654;28;19914;-86
2023/05/08 07:18:27;;;;;;;;;;;12.00;61.50;;;;;;4108737;28;20242;-85
2023/05/08 07:20:28;;;;;;;;;;;11.90;60.80;;;;;;4102090;28;19929;-86
2023/05/08 07:22:29;;;;;;;;;;;12.00;61.50;;;;;;4071972;29;19918;-86
2023/05/08 07:24:32;;;;;;;;;;;12.00;61.70;;;;;;4107475;28;20060;-85
2023/05/08 07:26:33;;;;;;;;;;;12.00;60.90;;;;;;4103132;28;20398;-85
2023/05/08 07:28:33;;;;;;;;;;;12.20;60.80;;;;;;4107167;28;19911;-86
2023/05/08 07:30:34;;;;;;;;;;;12.20;60.80;;;;;;4088466;28;19944;-88
2023/05/08 07:32:38;;;;;;;;;;;12.20;60.70;;;;;;4101593;28;19921;-86
2023/05/08 07:34:39;;;;;;;;;;;12.30;60.70;;;;;;4106185;28;19914;-86
2023/05/08 07:36:59;;;;;;;;;;;12.30;60.50;;;;;;4108348;28;20380;-84
2023/05/08 07:39:20;;;;;;;;;;;12.30;60.50;;;;;;4109432;28;19933;-88
2023/05/08 07:42:30;;;;;;;;;;;12.30;60.30;;;;;;4107175;28;20876;-86
2023/05/08 07:44:24;;;;;;;;;;;12.30;59.80;;;;;;4084197;28;19926;-85
2023/05/08 07:46:44;;;;;;;;;;;12.40;60.10;;;;;;4108687;28;19922;-86
2023/05/08 07:49:08;;;;;;;;;;;12.40;60.10;;;;;;4109034;28;19969;-86
2023/05/08 07:51:28;;;;;;;;;;;12.40;59.20;;;;;;4107044;28;20367;-84
2023/05/08 07:53:50;;;;;;;;;;;12.40;57.10;;;;;;4111242;28;19921;-86
2023/05/08 07:56:10;;;;;;;;;;;12.50;58.70;;;;;;4107555;28;19988;-88
2023/05/08 07:58:31;;;;;;;;;;;12.50;58.60;;;;;;4106535;28;19985;-86
2023/05/08 08:00:51;;;;;;;;;;;12.60;58.90;;;;;;4110865;28;19969;-87
2023/05/08 08:02:52;;;;;;;;;;;12.60;59.00;;;;;;4109232;28;20442;-87
2023/05/08 08:05:12;;;;;;;;;;;12.70;58.70;;;;;;4109863;28;19925;-86
2023/05/08 08:07:14;;;;;;;;;;;12.70;58.50;;;;;;4092621;28;20337;-86
2023/05/08 08:09:35;;;;;;;;;;;12.80;58.50;;;;;;4110909;28;20307;-86
2023/05/08 08:11:55;;;;;;;;;;;12.80;57.90;;;;;;4106020;28;20937;-85
2023/05/08 08:14:16;;;;;;;;;;;12.80;56.90;;;;;;4107527;28;20507;-85
2023/05/08 08:16:36;;;;;;;;;;;12.90;56.00;;;;;;4109070;28;20392;-86
2023/05/08 08:18:58;;;;;;;;;;;12.80;57.10;;;;;;4111138;28;20392;-85
2023/05/08 08:21:19;;;;;;;;;;;12.90;57.40;;;;;;4102706;28;19925;-86
2023/05/08 08:23:39;;;;;;;;;;;12.90;57.80;;;;;;4107645;28;20310;-85
2023/05/08 08:26:00;;;;;;;;;;;13.10;57.60;;;;;;4094558;28;20324;-84
2023/05/08 08:28:21;;;;;;;;;;;13.10;56.90;;;;;;4107673;28;20351;-84
2023/05/08 08:30:22;;;;;;;;;;;13.20;56.60;;;;;;4108966;28;19929;-85
2023/05/08 08:32:22;;;;;;;;;;;13.20;56.40;;;;;;4108925;28;19918;-84
2023/05/08 08:34:23;;;;;;;;;;;13.20;55.70;;;;;;4105404;28;19980;-86
2023/05/08 08:36:23;;;;;;;;;;;13.20;56.20;;;;;;4105386;28;19914;-86
2023/05/08 08:38:24;;;;;;;;;;;13.20;56.50;;;;;;4108345;28;19922;-85
2023/05/08 08:40:25;;;;;;;;;;;13.30;56.70;;;;;;4108909;28;19918;-85
2023/05/08 08:42:25;;;;;;;;;;;13.30;55.70;;;;;;4112331;28;19926;-88
2023/05/08 08:44:26;;;;;;;;;;;13.40;55.90;;;;;;4105843;28;19973;-86
2023/05/08 08:46:27;;;;;;;;;;;13.40;55.90;;;;;;4106740;28;20421;-85
2023/05/08 08:48:28;;;;;;;;;;;13.40;55.20;;;;;;4103801;28;19918;-85
2023/05/08 08:50:31;;;;;;;;;;;13.50;54.60;;;;;;4111077;28;19914;-87
2023/05/08 08:52:40;;;;;;;;;;;13.50;55.00;;;;;;4106042;28;19978;-86
2023/05/08 08:54:42;;;;;;;;;;;13.50;53.90;;;;;;4107365;28;19922;-85
2023/05/08 08:56:44;;;;;;;;;;;13.60;54.20;;;;;;4106134;28;20353;-85
2023/05/08 08:58:56;;;;;;;;;;;13.70;54.80;;;;;;4085174;28;19929;-86
2023/05/08 09:00:59;;;;;;;;;;;13.70;54.60;;;;;;4102787;28;19918;-87
2023/05/08 09:03:00;;;;;;;;;;;13.70;53.80;;;;;;4106760;28;19918;-86
2023/05/08 09:05:04;;;;;;;;;;;13.80;54.50;;;;;;4107397;28;19918;-85
2023/05/08 09:07:07;;;;;;;;;;;13.80;54.10;;;;;;4105926;28;19925;-89
2023/05/08 09:09:15;;;;;;;;;;;13.80;53.50;;;;;;4103385;28;19922;-86
2023/05/08 09:11:16;;;;;;;;;;;13.90;53.50;;;;;;4091121;28;19914;-87
2023/05/08 09:13:18;;;;;;;;;;;14.00;53.80;;;;;;4088519;28;20006;-88
2023/05/08 09:15:18;;;;;;;;;;;14.00;52.50;;;;;;4088976;28;19926;-88
2023/05/08 09:17:20;;;;;;;;;;;14.00;53.10;;;;;;4087608;28;19970;-85
2023/05/08 09:19:22;;;;;;;;;;;14.00;53.40;;;;;;4100971;28;19980;-86
2023/05/08 09:21:23;;;;;;;;;;;14.10;53.30;;;;;;4107754;28;19922;-84
2023/05/08 09:23:25;;;;;;;;;;;14.10;53.00;;;;;;4105132;28;19914;-86
2023/05/08 09:25:25;;;;;;;;;;;14.20;52.80;;;;;;4106097;28;20289;-87
2023/05/08 09:27:35;;;;;;;;;;;14.10;52.80;;;;;;4102084;28;19934;-87
2023/05/08 09:30:03;;;;;;;;;;;14.30;53.20;;;;;;4105752;28;19964;-84
2023/05/08 09:32:23;;;;;;;;;;;14.30;53.50;;;;;;4104058;28;19929;-87
2023/05/08 09:34:50;;;;;;;;;;;14.30;52.70;;;;;;4104050;28;20297;-85
2023/05/08 09:37:12;;;;;;;;;;;14.40;53.70;;;;;;4105084;28;20404;-85
2023/05/08 09:39:33;;;;;;;;;;;14.40;53.40;;;;;;4086142;28;19934;-86
2023/05/08 09:41:58;;;;;;;;;;;14.40;52.30;;;;;;4106193;28;20461;-86
2023/05/08 09:44:18;;;;;;;;;;;14.50;53.40;;;;;;4105260;28;19925;-88
2023/05/08 09:46:39;;;;;;;;;;;14.50;53.00;;;;;;4106621;28;20019;-86
2023/05/08 09:49:01;;;;;;;;;;;14.60;53.40;;;;;;4102527;28;19948;-87
2023/05/08 09:51:22;;;;;;;;;;;14.60;53.00;;;;;;4105837;28;19920;-86
2023/05/08 09:53:43;;;;;;;;;;;14.40;50.50;;;;;;4094143;28;20356;-88
2023/05/08 09:55:47;;;;;;;;;;;14.50;52.50;;;;;;4090005;28;20017;-87
2023/05/08 09:57:52;;;;;;;;;;;14.60;52.30;;;;;;4068521;29;19972;-87
2023/05/08 10:00:08;;;;;;;;;;;14.50;51.30;;;;;;4107006;28;19962;-87
2023/05/08 10:02:11;;;;;;;;;;;14.50;50.60;;;;;;4087451;28;19923;-88
2023/05/08 10:04:12;;;;;;;;;;;14.60;51.80;;;;;;4106112;28;19918;-87
2023/05/08 10:06:13;;;;;;;;;;;14.60;52.70;;;;;;4092261;28;19984;-87
2023/05/08 10:10:26;;;;;;;;;;;14.60;52.50;;;;;;4340634;23;19937;-86
2023/05/08 10:12:37;;;;;;;;;;;14.70;51.40;;;;;;4152575;28;20378;-86
2023/05/08 10:14:38;;;;;;;;;;;14.70;50.20;;;;;;4156180;28;19995;-84
2023/05/08 10:16:43;;;;;;;;;;;14.70;50.80;;;;;;4156164;28;19925;-85
2023/05/08 10:18:48;;;;;;;;;;;14.60;48.80;;;;;;4156476;28;19921;-86
2023/05/08 10:20:50;;;;;;;;;;;14.60;49.30;;;;;;4153741;28;20644;-85
2023/05/08 10:22:52;;;;;;;;;;;14.70;50.20;;;;;;4132423;28;20017;-85
2023/05/08 10:25:10;;;;;;;;;;;14.70;50.50;;;;;;4146351;28;19925;-85
2023/05/08 10:27:18;;;;;;;;;;;14.70;50.90;;;;;;4153369;28;20315;-87
2023/05/08 10:29:36;;;;;;;;;;;14.70;51.70;;;;;;4134820;28;21169;-88
2023/05/08 10:31:53;;;;;;;;;;;14.80;52.10;;;;;;4145777;28;20431;-86
2023/05/08 10:34:02;;;;;;;;;;;14.70;50.00;;;;;;4134501;28;19922;-85
2023/05/08 10:36:29;;;;;;;;;;;14.60;48.90;;;;;;4138827;28;19916;-86
2023/05/08 10:38:50;;;;;;;;;;;14.60;50.20;;;;;;4152678;28;20004;-86
2023/05/08 10:41:00;;;;;;;;;;;14.60;50.70;;;;;;4140839;28;19921;-87
2023/05/08 10:43:20;;;;;;;;;;;14.70;51.00;;;;;;4154584;28;19921;-86
2023/05/08 10:45:52;;;;;;;;;;;14.80;50.80;;;;;;4155099;28;19920;-86
2023/05/08 10:48:13;;;;;;;;;;;14.70;48.90;;;;;;4138950;28;19922;-86
2023/05/08 10:50:58;;;;;;;;;;;14.70;49.20;;;;;;4150670;28;19951;-86
2023/05/08 10:53:38;;;;;;;;;;;14.70;48.80;;;;;;4154200;28;19917;-86
2023/05/08 10:55:59;;;;;;;;;;;14.70;50.10;;;;;;4154929;28;19921;-85
2023/05/08 10:58:22;;;;;;;;;;;14.70;49.00;;;;;;4154522;28;20508;-86
2023/05/08 11:00:55;;;;;;;;;;;14.80;49.60;;;;;;4154344;28;19921;-86
2023/05/08 11:03:26;;;;;;;;;;;14.70;48.40;;;;;;4152451;28;19980;-87
2023/05/08 11:05:47;;;;;;;;;;;14.70;49.10;;;;;;4155526;28;20008;-85
2023/05/08 11:08:13;;;;;;;;;;;14.70;50.10;;;;;;4154786;28;19921;-87
2023/05/08 11:10:36;;;;;;;;;;;14.70;49.20;;;;;;4153325;28;19917;-86
2023/05/08 11:12:57;;;;;;;;;;;14.90;49.60;;;;;;4156218;28;19920;-86
2023/05/08 11:15:39;;;;;;;;;;;14.90;48.90;;;;;;4138157;28;19917;-87
2023/05/08 11:18:43;;;;;;;;;;;15.00;49.80;;;;;;4155416;28;19921;-87
2023/05/08 11:21:07;;;;;;;;;;;14.80;48.60;;;;;;4141261;28;20648;-85
2023/05/08 11:26:43;;;;;;;;;;;15.10;48.80;;;;;;4107989;28;19918;-86
2023/05/08 11:29:25;;;;;;;;;;;15.10;48.30;;;;;;4093935;28;19918;-86
2023/05/08 11:55:49;;;;;;;;;;;15.30;45.70;;;;;;4142269;28;19949;-86
2023/05/08 12:00:14;;;;;;;;;;;15.50;46.90;;;;;;524168;26;20217;-85
2023/05/08 12:02:45;;;;;;;;;;;15.50;46.10;;;;;;4156466;28;20007;-85
2023/05/08 12:05:12;;;;;;;;;;;15.50;46.20;;;;;;4144584;28;19979;-85
2023/05/08 12:07:43;;;;;;;;;;;15.50;46.00;;;;;;4157380;28;19956;-86
2023/05/08 12:09:47;;;;;;;;;;;15.60;46.40;;;;;;4124452;28;19957;-85
2023/05/08 12:11:54;;;;;;;;;;;15.60;46.00;;;;;;4125565;28;19917;-86
2023/05/08 12:13:55;;;;;;;;;;;15.70;46.00;;;;;;4141838;28;19921;-85
2023/05/08 12:15:58;;;;;;;;;;;15.60;44.10;;;;;;4138799;28;20321;-85
2023/05/08 12:18:11;;;;;;;;;;;15.70;44.90;;;;;;4123135;28;19964;-86
2023/05/08 12:20:20;;;;;;;;;;;15.70;45.10;;;;;;4115393;28;19922;-86
2023/05/08 12:22:34;;;;;;;;;;;15.80;45.20;;;;;;4142452;28;20437;-85
2023/05/08 12:24:37;;;;;;;;;;;15.80;45.20;;;;;;4136258;28;19928;-85
2023/05/08 12:26:39;;;;;;;;;;;15.70;43.40;;;;;;4136946;28;19922;-86
2023/05/08 12:29:41;;;;;;;;;;;15.70;45.00;;;;;;4127935;28;19925;-85
2023/05/08 12:31:55;;;;;;;;;;;15.60;44.10;;;;;;4048610;29;19919;-86
2023/05/08 12:37:33;;;;;;;;;;;15.90;44.70;;;;;;4033754;29;19920;-86
2023/05/08 12:50:05;;;;;;;;;;;15.90;44.80;;;;;;4270865;22;19932;-84
2023/05/08 12:52:12;;;;;;;;;;;16.00;46.00;;;;;;4125272;28;20295;-87
2023/05/08 12:54:12;;;;;;;;;;;16.10;45.60;;;;;;4135943;28;20008;-85
2023/05/08 12:56:23;;;;;;;;;;;16.10;45.80;;;;;;4107834;28;19922;-88
2023/05/08 12:58:34;;;;;;;;;;;16.20;46.10;;;;;;4125466;28;20697;-86
2023/05/08 13:00:48;;;;;;;;;;;16.20;46.30;;;;;;4121527;28;19952;-86
2023/05/08 13:02:52;;;;;;;;;;;16.30;46.80;;;;;;4123676;28;19944;-86
2023/05/08 13:05:22;;;;;;;;;;;16.30;44.80;;;;;;4126746;28;19929;-87
2023/05/08 13:07:43;;;;;;;;;;;16.40;46.10;;;;;;4125917;28;19922;-86
2023/05/08 13:10:04;;;;;;;;;;;16.40;45.60;;;;;;4123241;28;19917;-86
2023/05/08 13:12:14;;;;;;;;;;;16.50;44.70;;;;;;4123957;28;19924;-86
2023/05/08 13:14:35;;;;;;;;;;;16.50;44.20;;;;;;4137311;28;19925;-86
2023/05/08 13:16:56;;;;;;;;;;;16.50;43.80;;;;;;4140022;28;19918;-84
2023/05/08 13:19:26;;;;;;;;;;;16.60;42.50;;;;;;4141867;28;19913;-87
2023/05/08 13:22:07;;;;;;;;;;;16.50;42.90;;;;;;4127498;28;19914;-84
2023/05/08 13:24:36;;;;;;;;;;;16.50;42.50;;;;;;4094567;28;19969;-85
2023/05/08 13:26:57;;;;;;;;;;;16.50;43.20;;;;;;4084104;28;21120;-87
2023/05/08 13:28:57;;;;;;;;;;;16.50;42.50;;;;;;4100588;28;19942;-86
2023/05/08 13:30:58;;;;;;;;;;;16.50;43.60;;;;;;4092339;28;19945;-87
2023/05/08 13:33:02;;;;;;;;;;;16.50;42.80;;;;;;4077440;29;20508;-86
2023/05/08 13:35:06;;;;;;;;;;;16.50;43.20;;;;;;4077397;29;19930;-86
2023/05/08 13:37:15;;;;;;;;;;;16.40;41.80;;;;;;4080378;29;19923;-89
2023/05/08 13:39:16;;;;;;;;;;;16.50;42.90;;;;;;4079794;29;19914;-85
2023/05/08 13:41:16;;;;;;;;;;;16.50;42.70;;;;;;4090620;28;20292;-87